sensor_id;sensor_type;location;lat;lon;timestamp;P1;durP1;ratioP1;P2;durP2;ratioP2
76735;SDS011;70098;44.562;0.086;2024-02-23T00:01:52;22.10;;;4.50;;
76735;SDS011;70098;44.562;0.086;2024-02-23T00:17:10;19.83;;;3.73;;
76735;SDS011;70098;44.562;0.086;2024-02-23T00:32:29;32.57;;;4.47;;
76735;SDS011;70098;44.562;0.086;2024-02-23T00:47:48;21.17;;;4.40;;
76735;SDS011;70098;44.562;0.086;2024-02-23T01:03:08;20.93;;;3.13;;
76735;SDS011;70098;44.562;0.086;2024-02-23T01:18:27;20.90;;;3.23;;
76735;SDS011;70098;44.562;0.086;2024-02-23T01:33:46;29.67;;;4.80;;
76735;SDS011;70098;44.562;0.086;2024-02-23T01:49:07;35.37;;;4.60;;
76735;SDS011;70098;44.562;0.086;2024-02-23T02:04:28;28.13;;;6.20;;
76735;SDS011;70098;44.562;0.086;2024-02-23T02:19:46;22.70;;;4.57;;
76735;SDS011;70098;44.562;0.086;2024-02-23T02:35:07;10.10;;;1.80;;
76735;SDS011;70098;44.562;0.086;2024-02-23T02:50:26;5.43;;;1.70;;
76735;SDS011;70098;44.562;0.086;2024-02-23T03:05:46;9.97;;;1.83;;
76735;SDS011;70098;44.562;0.086;2024-02-23T03:21:05;8.87;;;1.40;;
76735;SDS011;70098;44.562;0.086;2024-02-23T03:36:24;4.53;;;0.60;;
76735;SDS011;70098;44.562;0.086;2024-02-23T03:51:43;0.60;;;0.57;;
76735;SDS011;70098;44.562;0.086;2024-02-23T04:07:01;1.90;;;0.43;;
76735;SDS011;70098;44.562;0.086;2024-02-23T04:22:21;2.83;;;0.40;;
76735;SDS011;70098;44.562;0.086;2024-02-23T04:37:40;4.77;;;0.90;;
76735;SDS011;70098;44.562;0.086;2024-02-23T04:52:58;1.43;;;0.30;;
76735;SDS011;70098;44.562;0.086;2024-02-23T05:08:18;1.57;;;0.90;;
76735;SDS011;70098;44.562;0.086;2024-02-23T05:23:38;2.60;;;0.77;;
76735;SDS011;70098;44.562;0.086;2024-02-23T05:38:57;3.57;;;1.13;;
76735;SDS011;70098;44.562;0.086;2024-02-23T05:54:16;10.13;;;1.10;;
76735;SDS011;70098;44.562;0.086;2024-02-23T06:09:36;16.10;;;2.30;;
76735;SDS011;70098;44.562;0.086;2024-02-23T06:24:55;11.37;;;2.20;;
76735;SDS011;70098;44.562;0.086;2024-02-23T06:40:14;9.27;;;1.23;;
76735;SDS011;70098;44.562;0.086;2024-02-23T06:55:35;1.73;;;0.77;;
76735;SDS011;70098;44.562;0.086;2024-02-23T07:10:53;2.23;;;0.60;;
76735;SDS011;70098;44.562;0.086;2024-02-23T07:26:13;3.00;;;0.60;;
76735;SDS011;70098;44.562;0.086;2024-02-23T07:41:33;5.73;;;0.77;;
76735;SDS011;70098;44.562;0.086;2024-02-23T07:56:52;2.63;;;0.90;;
76735;SDS011;70098;44.562;0.086;2024-02-23T08:12:12;5.53;;;1.20;;
76735;SDS011;70098;44.562;0.086;2024-02-23T08:27:32;3.97;;;0.77;;
76735;SDS011;70098;44.562;0.086;2024-02-23T08:42:53;3.40;;;0.67;;
76735;SDS011;70098;44.562;0.086;2024-02-23T08:58:12;4.63;;;0.43;;
76735;SDS011;70098;44.562;0.086;2024-02-23T09:13:32;5.33;;;0.70;;
76735;SDS011;70098;44.562;0.086;2024-02-23T09:28:52;5.00;;;0.93;;
76735;SDS011;70098;44.562;0.086;2024-02-23T09:44:12;3.33;;;0.60;;
76735;SDS011;70098;44.562;0.086;2024-02-23T09:59:32;7.10;;;1.40;;
76735;SDS011;70098;44.562;0.086;2024-02-23T10:14:54;-1.00;;;-1.00;;
76735;SDS011;70098;44.562;0.086;2024-02-23T10:30:13;2.73;;;0.43;;
76735;SDS011;70098;44.562;0.086;2024-02-23T10:45:34;3.77;;;0.73;;
76735;SDS011;70098;44.562;0.086;2024-02-23T11:00:49;0.33;;;0.17;;
76735;SDS011;70098;44.562;0.086;2024-02-23T11:16:09;3.90;;;1.80;;
76735;SDS011;70098;44.562;0.086;2024-02-23T11:31:29;3.93;;;1.67;;
76735;SDS011;70098;44.562;0.086;2024-02-23T11:46:46;0.90;;;0.70;;
76735;SDS011;70098;44.562;0.086;2024-02-23T12:02:06;10.60;;;2.87;;
76735;SDS011;70098;44.562;0.086;2024-02-23T12:17:27;12.73;;;1.87;;
76735;SDS011;70098;44.562;0.086;2024-02-23T12:32:48;6.33;;;1.67;;
76735;SDS011;70098;44.562;0.086;2024-02-23T12:48:09;10.40;;;0.50;;
76735;SDS011;70098;44.562;0.086;2024-02-23T13:03:31;0.70;;;0.43;;
76735;SDS011;70098;44.562;0.086;2024-02-23T13:18:50;7.63;;;1.20;;
76735;SDS011;70098;44.562;0.086;2024-02-23T13:34:07;5.77;;;1.70;;
76735;SDS011;70098;44.562;0.086;2024-02-23T13:49:25;2.47;;;0.40;;
76735;SDS011;70098;44.562;0.086;2024-02-23T14:04:44;1.77;;;0.70;;
76735;SDS011;70098;44.562;0.086;2024-02-23T14:20:03;0.80;;;0.77;;
76735;SDS011;70098;44.562;0.086;2024-02-23T14:35:24;1.07;;;0.83;;
76735;SDS011;70098;44.562;0.086;2024-02-23T14:50:43;6.40;;;2.53;;
76735;SDS011;70098;44.562;0.086;2024-02-23T15:06:02;0.77;;;0.73;;
76735;SDS011;70098;44.562;0.086;2024-02-23T15:21:21;8.87;;;3.97;;
76735;SDS011;70098;44.562;0.086;2024-02-23T15:36:41;4.60;;;1.60;;
76735;SDS011;70098;44.562;0.086;2024-02-23T15:52:00;3.10;;;0.87;;
76735;SDS011;70098;44.562;0.086;2024-02-23T16:07:22;2.20;;;1.00;;
76735;SDS011;70098;44.562;0.086;2024-02-23T16:22:42;1.27;;;0.50;;
76735;SDS011;70098;44.562;0.086;2024-02-23T16:37:59;0.10;;;0.10;;
76735;SDS011;70098;44.562;0.086;2024-02-23T16:53:18;0.23;;;0.23;;
76735;SDS011;70098;44.562;0.086;2024-02-23T17:08:38;17.07;;;5.43;;
76735;SDS011;70098;44.562;0.086;2024-02-23T17:23:57;6.20;;;1.80;;
76735;SDS011;70098;44.562;0.086;2024-02-23T17:39:16;12.80;;;2.93;;
76735;SDS011;70098;44.562;0.086;2024-02-23T17:54:35;17.37;;;2.87;;
76735;SDS011;70098;44.562;0.086;2024-02-23T18:09:56;8.60;;;1.67;;
76735;SDS011;70098;44.562;0.086;2024-02-23T18:25:15;3.33;;;0.83;;
76735;SDS011;70098;44.562;0.086;2024-02-23T18:40:33;3.80;;;0.50;;
76735;SDS011;70098;44.562;0.086;2024-02-23T18:55:52;0.10;;;0.10;;
76735;SDS011;70098;44.562;0.086;2024-02-23T19:11:12;0.30;;;0.30;;
76735;SDS011;70098;44.562;0.086;2024-02-23T19:26:33;9.93;;;3.60;;
76735;SDS011;70098;44.562;0.086;2024-02-23T19:41:53;5.70;;;3.87;;
76735;SDS011;70098;44.562;0.086;2024-02-23T19:57:12;9.20;;;0.77;;
76735;SDS011;70098;44.562;0.086;2024-02-23T20:12:32;6.63;;;2.60;;
76735;SDS011;70098;44.562;0.086;2024-02-23T20:27:51;13.63;;;3.30;;
76735;SDS011;70098;44.562;0.086;2024-02-23T20:43:11;8.33;;;2.80;;
76735;SDS011;70098;44.562;0.086;2024-02-23T20:58:31;6.00;;;2.33;;
76735;SDS011;70098;44.562;0.086;2024-02-23T21:13:50;4.20;;;1.90;;
76735;SDS011;70098;44.562;0.086;2024-02-23T21:29:09;12.00;;;2.70;;
76735;SDS011;70098;44.562;0.086;2024-02-23T21:44:30;2.77;;;1.50;;
76735;SDS011;70098;44.562;0.086;2024-02-23T21:59:50;5.80;;;2.10;;
76735;SDS011;70098;44.562;0.086;2024-02-23T22:15:09;2.43;;;1.27;;
76735;SDS011;70098;44.562;0.086;2024-02-23T22:30:30;6.70;;;1.97;;
76735;SDS011;70098;44.562;0.086;2024-02-23T22:45:49;8.07;;;2.30;;
76735;SDS011;70098;44.562;0.086;2024-02-23T23:01:09;5.77;;;1.83;;
76735;SDS011;70098;44.562;0.086;2024-02-23T23:16:29;4.10;;;1.33;;
76735;SDS011;70098;44.562;0.086;2024-02-23T23:31:50;0.40;;;0.40;;
76735;SDS011;70098;44.562;0.086;2024-02-23T23:47:10;1.63;;;1.00;;
